sensor_id;sensor_type;location;lat;lon;timestamp;temperature;humidity
13322;DHT22;6730;46.248;6.930;2024-03-06T00:02:07;5.20;99.90
13322;DHT22;6730;46.248;6.930;2024-03-06T00:04:33;5.20;99.90
13322;DHT22;6730;46.248;6.930;2024-03-06T00:07:00;5.40;99.90
13322;DHT22;6730;46.248;6.930;2024-03-06T00:09:26;5.50;99.90
13322;DHT22;6730;46.248;6.930;2024-03-06T00:11:55;5.60;99.90
13322;DHT22;6730;46.248;6.930;2024-03-06T00:14:22;5.60;99.90
13322;DHT22;6730;46.248;6.930;2024-03-06T00:16:48;5.70;99.90
13322;DHT22;6730;46.248;6.930;2024-03-06T00:19:23;5.60;99.90
13322;DHT22;6730;46.248;6.930;2024-03-06T00:21:49;5.80;99.90
13322;DHT22;6730;46.248;6.930;2024-03-06T00:24:15;5.90;99.90
13322;DHT22;6730;46.248;6.930;2024-03-06T00:26:44;5.80;99.90
13322;DHT22;6730;46.248;6.930;2024-03-06T00:29:14;5.90;99.90
13322;DHT22;6730;46.248;6.930;2024-03-06T00:31:45;5.90;99.90
13322;DHT22;6730;46.248;6.930;2024-03-06T00:34:11;6.00;99.90
13322;DHT22;6730;46.248;6.930;2024-03-06T00:36:40;6.10;99.90
13322;DHT22;6730;46.248;6.930;2024-03-06T00:39:06;6.10;99.90
13322;DHT22;6730;46.248;6.930;2024-03-06T00:41:34;5.90;99.90
13322;DHT22;6730;46.248;6.930;2024-03-06T00:44:00;5.90;99.90
13322;DHT22;6730;46.248;6.930;2024-03-06T00:46:25;5.70;99.90
13322;DHT22;6730;46.248;6.930;2024-03-06T00:48:51;5.40;99.90
13322;DHT22;6730;46.248;6.930;2024-03-06T00:51:17;5.40;99.90
13322;DHT22;6730;46.248;6.930;2024-03-06T00:53:43;5.50;99.90
13322;DHT22;6730;46.248;6.930;2024-03-06T00:56:08;5.50;99.90
13322;DHT22;6730;46.248;6.930;2024-03-06T00:58:34;5.60;99.90
13322;DHT22;6730;46.248;6.930;2024-03-06T01:01:00;5.60;99.90
13322;DHT22;6730;46.248;6.930;2024-03-06T01:03:26;5.60;99.90
13322;DHT22;6730;46.248;6.930;2024-03-06T01:05:51;5.80;99.90
13322;DHT22;6730;46.248;6.930;2024-03-06T01:08:24;5.80;99.90
13322;DHT22;6730;46.248;6.930;2024-03-06T01:10:53;5.90;99.90
13322;DHT22;6730;46.248;6.930;2024-03-06T01:13:22;5.80;99.90
13322;DHT22;6730;46.248;6.930;2024-03-06T01:15:48;5.70;99.90
13322;DHT22;6730;46.248;6.930;2024-03-06T01:18:14;5.80;99.90
13322;DHT22;6730;46.248;6.930;2024-03-06T01:20:39;5.90;99.90
13322;DHT22;6730;46.248;6.930;2024-03-06T01:23:06;5.80;99.90
13322;DHT22;6730;46.248;6.930;2024-03-06T01:25:32;5.80;99.90
13322;DHT22;6730;46.248;6.930;2024-03-06T01:27:57;5.70;99.90
13322;DHT22;6730;46.248;6.930;2024-03-06T01:30:23;5.60;99.90
13322;DHT22;6730;46.248;6.930;2024-03-06T01:32:49;5.50;99.90
13322;DHT22;6730;46.248;6.930;2024-03-06T01:35:14;5.50;99.90
13322;DHT22;6730;46.248;6.930;2024-03-06T01:37:40;5.70;99.90
13322;DHT22;6730;46.248;6.930;2024-03-06T01:40:06;5.70;99.90
13322;DHT22;6730;46.248;6.930;2024-03-06T01:42:33;5.80;99.90
13322;DHT22;6730;46.248;6.930;2024-03-06T01:44:58;5.80;99.90
13322;DHT22;6730;46.248;6.930;2024-03-06T01:47:24;5.90;99.90
13322;DHT22;6730;46.248;6.930;2024-03-06T01:49:50;6.00;99.90
13322;DHT22;6730;46.248;6.930;2024-03-06T01:52:16;6.00;99.90
13322;DHT22;6730;46.248;6.930;2024-03-06T01:54:44;6.00;99.90
13322;DHT22;6730;46.248;6.930;2024-03-06T01:57:11;6.00;99.90
13322;DHT22;6730;46.248;6.930;2024-03-06T01:59:40;6.00;99.90
13322;DHT22;6730;46.248;6.930;2024-03-06T02:02:07;6.00;99.90
13322;DHT22;6730;46.248;6.930;2024-03-06T02:04:37;5.90;99.90
13322;DHT22;6730;46.248;6.930;2024-03-06T02:07:03;5.80;99.90
13322;DHT22;6730;46.248;6.930;2024-03-06T02:09:30;5.70;99.90
13322;DHT22;6730;46.248;6.930;2024-03-06T02:11:56;5.70;99.90
13322;DHT22;6730;46.248;6.930;2024-03-06T02:14:22;5.80;99.90
13322;DHT22;6730;46.248;6.930;2024-03-06T02:16:48;5.80;99.90
13322;DHT22;6730;46.248;6.930;2024-03-06T02:19:14;5.80;99.90
13322;DHT22;6730;46.248;6.930;2024-03-06T02:21:39;5.90;99.90
13322;DHT22;6730;46.248;6.930;2024-03-06T02:24:05;5.70;99.90
13322;DHT22;6730;46.248;6.930;2024-03-06T02:26:30;5.60;99.90
13322;DHT22;6730;46.248;6.930;2024-03-06T02:28:56;5.70;99.90
13322;DHT22;6730;46.248;6.930;2024-03-06T02:31:22;5.30;99.90
13322;DHT22;6730;46.248;6.930;2024-03-06T02:33:49;5.10;99.90
13322;DHT22;6730;46.248;6.930;2024-03-06T02:36:18;5.10;99.90
13322;DHT22;6730;46.248;6.930;2024-03-06T02:38:47;5.30;99.90
13322;DHT22;6730;46.248;6.930;2024-03-06T02:41:14;5.20;99.90
13322;DHT22;6730;46.248;6.930;2024-03-06T02:43:41;5.10;99.90
13322;DHT22;6730;46.248;6.930;2024-03-06T02:46:07;5.10;99.90
13322;DHT22;6730;46.248;6.930;2024-03-06T02:48:33;5.20;99.90
13322;DHT22;6730;46.248;6.930;2024-03-06T02:50:59;5.40;99.90
13322;DHT22;6730;46.248;6.930;2024-03-06T02:53:25;5.30;99.90
13322;DHT22;6730;46.248;6.930;2024-03-06T02:55:51;5.10;99.90
13322;DHT22;6730;46.248;6.930;2024-03-06T02:58:16;5.30;99.90
13322;DHT22;6730;46.248;6.930;2024-03-06T03:00:43;5.50;99.90
13322;DHT22;6730;46.248;6.930;2024-03-06T03:03:09;5.50;99.90
13322;DHT22;6730;46.248;6.930;2024-03-06T03:05:37;5.70;99.90
13322;DHT22;6730;46.248;6.930;2024-03-06T03:08:03;5.80;99.90
13322;DHT22;6730;46.248;6.930;2024-03-06T03:10:30;5.70;99.90
13322;DHT22;6730;46.248;6.930;2024-03-06T03:12:56;5.80;99.90
13322;DHT22;6730;46.248;6.930;2024-03-06T03:15:22;5.70;99.90
13322;DHT22;6730;46.248;6.930;2024-03-06T03:17:47;5.60;99.90
13322;DHT22;6730;46.248;6.930;2024-03-06T03:20:13;5.40;99.90
13322;DHT22;6730;46.248;6.930;2024-03-06T03:22:42;4.70;99.90
13322;DHT22;6730;46.248;6.930;2024-03-06T03:25:10;4.70;99.90
13322;DHT22;6730;46.248;6.930;2024-03-06T03:27:38;5.00;99.90
13322;DHT22;6730;46.248;6.930;2024-03-06T03:30:08;5.00;99.90
13322;DHT22;6730;46.248;6.930;2024-03-06T03:32:34;4.70;99.90
13322;DHT22;6730;46.248;6.930;2024-03-06T03:35:00;5.00;99.90
13322;DHT22;6730;46.248;6.930;2024-03-06T03:37:26;5.10;99.90
13322;DHT22;6730;46.248;6.930;2024-03-06T03:39:52;5.30;99.90
13322;DHT22;6730;46.248;6.930;2024-03-06T03:42:18;5.50;99.90
13322;DHT22;6730;46.248;6.930;2024-03-06T03:44:44;5.50;99.90
13322;DHT22;6730;46.248;6.930;2024-03-06T03:47:10;5.20;99.90
13322;DHT22;6730;46.248;6.930;2024-03-06T03:49:36;5.10;99.90
13322;DHT22;6730;46.248;6.930;2024-03-06T03:52:01;5.00;99.90
13322;DHT22;6730;46.248;6.930;2024-03-06T03:54:28;4.90;99.90
13322;DHT22;6730;46.248;6.930;2024-03-06T03:56:54;5.10;99.90
13322;DHT22;6730;46.248;6.930;2024-03-06T03:59:20;5.20;99.90
13322;DHT22;6730;46.248;6.930;2024-03-06T04:01:45;5.30;99.90
13322;DHT22;6730;46.248;6.930;2024-03-06T04:04:12;5.40;99.90
13322;DHT22;6730;46.248;6.930;2024-03-06T04:06:38;5.50;99.90
13322;DHT22;6730;46.248;6.930;2024-03-06T04:09:04;5.40;99.90
13322;DHT22;6730;46.248;6.930;2024-03-06T04:11:30;5.00;99.90
13322;DHT22;6730;46.248;6.930;2024-03-06T04:13:59;5.10;99.90
13322;DHT22;6730;46.248;6.930;2024-03-06T04:16:24;5.40;99.90
13322;DHT22;6730;46.248;6.930;2024-03-06T04:18:50;5.40;99.90
13322;DHT22;6730;46.248;6.930;2024-03-06T04:21:16;5.20;99.90
13322;DHT22;6730;46.248;6.930;2024-03-06T04:23:43;5.00;99.90
13322;DHT22;6730;46.248;6.930;2024-03-06T04:26:09;4.90;99.90
13322;DHT22;6730;46.248;6.930;2024-03-06T04:28:34;4.90;99.90
13322;DHT22;6730;46.248;6.930;2024-03-06T04:31:00;4.50;99.90
13322;DHT22;6730;46.248;6.930;2024-03-06T04:33:26;3.70;99.90
13322;DHT22;6730;46.248;6.930;2024-03-06T04:35:51;3.60;99.90
13322;DHT22;6730;46.248;6.930;2024-03-06T04:38:17;3.90;99.90
13322;DHT22;6730;46.248;6.930;2024-03-06T04:40:43;4.10;99.90
13322;DHT22;6730;46.248;6.930;2024-03-06T04:43:10;4.50;99.90
13322;DHT22;6730;46.248;6.930;2024-03-06T04:45:36;4.70;99.90
13322;DHT22;6730;46.248;6.930;2024-03-06T04:48:02;4.70;99.90
13322;DHT22;6730;46.248;6.930;2024-03-06T04:50:28;4.70;99.90
13322;DHT22;6730;46.248;6.930;2024-03-06T04:52:54;4.70;99.90
13322;DHT22;6730;46.248;6.930;2024-03-06T04:55:19;4.60;99.90
13322;DHT22;6730;46.248;6.930;2024-03-06T04:57:48;4.70;99.90
13322;DHT22;6730;46.248;6.930;2024-03-06T05:00:15;4.40;99.90
13322;DHT22;6730;46.248;6.930;2024-03-06T05:02:41;3.20;99.90
13322;DHT22;6730;46.248;6.930;2024-03-06T05:05:07;3.50;99.90
13322;DHT22;6730;46.248;6.930;2024-03-06T05:07:33;4.00;99.90
13322;DHT22;6730;46.248;6.930;2024-03-06T05:09:59;4.20;99.90
13322;DHT22;6730;46.248;6.930;2024-03-06T05:12:26;4.30;99.90
13322;DHT22;6730;46.248;6.930;2024-03-06T05:14:53;4.20;99.90
13322;DHT22;6730;46.248;6.930;2024-03-06T05:17:19;4.10;99.90
13322;DHT22;6730;46.248;6.930;2024-03-06T05:19:46;4.10;99.90
13322;DHT22;6730;46.248;6.930;2024-03-06T05:22:13;4.20;99.90
13322;DHT22;6730;46.248;6.930;2024-03-06T05:24:42;4.10;99.90
13322;DHT22;6730;46.248;6.930;2024-03-06T05:27:08;4.30;99.90
13322;DHT22;6730;46.248;6.930;2024-03-06T05:29:35;4.30;99.90
13322;DHT22;6730;46.248;6.930;2024-03-06T05:32:02;4.60;99.90
13322;DHT22;6730;46.248;6.930;2024-03-06T05:34:28;4.70;99.90
13322;DHT22;6730;46.248;6.930;2024-03-06T05:36:55;4.80;99.90
13322;DHT22;6730;46.248;6.930;2024-03-06T05:39:20;4.80;99.90
13322;DHT22;6730;46.248;6.930;2024-03-06T05:41:46;4.70;99.90
13322;DHT22;6730;46.248;6.930;2024-03-06T05:44:12;4.80;99.90
13322;DHT22;6730;46.248;6.930;2024-03-06T05:46:37;5.00;99.90
13322;DHT22;6730;46.248;6.930;2024-03-06T05:49:03;5.10;99.90
13322;DHT22;6730;46.248;6.930;2024-03-06T05:51:30;5.20;99.90
13322;DHT22;6730;46.248;6.930;2024-03-06T05:53:56;5.20;99.90
13322;DHT22;6730;46.248;6.930;2024-03-06T05:56:22;4.80;99.90
13322;DHT22;6730;46.248;6.930;2024-03-06T05:58:48;3.90;99.90
13322;DHT22;6730;46.248;6.930;2024-03-06T06:01:17;3.80;99.90
13322;DHT22;6730;46.248;6.930;2024-03-06T06:03:47;4.10;99.90
13322;DHT22;6730;46.248;6.930;2024-03-06T06:06:16;4.30;99.90
13322;DHT22;6730;46.248;6.930;2024-03-06T06:08:42;4.60;99.90
13322;DHT22;6730;46.248;6.930;2024-03-06T06:11:09;4.60;99.90
13322;DHT22;6730;46.248;6.930;2024-03-06T06:13:35;4.80;99.90
13322;DHT22;6730;46.248;6.930;2024-03-06T06:16:01;5.00;99.90
13322;DHT22;6730;46.248;6.930;2024-03-06T06:18:29;5.10;99.90
13322;DHT22;6730;46.248;6.930;2024-03-06T06:20:59;5.10;99.90
13322;DHT22;6730;46.248;6.930;2024-03-06T06:23:25;5.00;99.90
13322;DHT22;6730;46.248;6.930;2024-03-06T06:25:51;5.20;99.90
13322;DHT22;6730;46.248;6.930;2024-03-06T06:28:17;5.20;99.90
13322;DHT22;6730;46.248;6.930;2024-03-06T06:30:43;5.20;99.90
13322;DHT22;6730;46.248;6.930;2024-03-06T06:33:08;5.20;99.90
13322;DHT22;6730;46.248;6.930;2024-03-06T06:35:35;5.00;99.90
13322;DHT22;6730;46.248;6.930;2024-03-06T06:38:01;5.10;99.90
13322;DHT22;6730;46.248;6.930;2024-03-06T06:40:27;5.00;99.90
13322;DHT22;6730;46.248;6.930;2024-03-06T06:42:56;4.90;99.90
13322;DHT22;6730;46.248;6.930;2024-03-06T06:45:22;5.10;99.90
13322;DHT22;6730;46.248;6.930;2024-03-06T06:47:48;5.20;99.90
13322;DHT22;6730;46.248;6.930;2024-03-06T06:50:15;5.30;99.90
13322;DHT22;6730;46.248;6.930;2024-03-06T06:52:42;5.20;99.90
13322;DHT22;6730;46.248;6.930;2024-03-06T06:55:08;4.70;99.90
13322;DHT22;6730;46.248;6.930;2024-03-06T06:57:37;4.50;99.90
13322;DHT22;6730;46.248;6.930;2024-03-06T07:00:04;4.70;99.90
13322;DHT22;6730;46.248;6.930;2024-03-06T07:02:40;4.60;99.90
13322;DHT22;6730;46.248;6.930;2024-03-06T07:05:07;4.30;99.90
13322;DHT22;6730;46.248;6.930;2024-03-06T07:07:34;4.30;99.90
13322;DHT22;6730;46.248;6.930;2024-03-06T07:10:01;4.60;99.90
13322;DHT22;6730;46.248;6.930;2024-03-06T07:12:26;4.80;99.90
13322;DHT22;6730;46.248;6.930;2024-03-06T07:14:52;5.00;99.90
13322;DHT22;6730;46.248;6.930;2024-03-06T07:17:18;5.20;99.90
13322;DHT22;6730;46.248;6.930;2024-03-06T07:19:43;5.40;99.90
13322;DHT22;6730;46.248;6.930;2024-03-06T07:22:09;5.40;99.90
13322;DHT22;6730;46.248;6.930;2024-03-06T07:24:35;5.20;99.90
13322;DHT22;6730;46.248;6.930;2024-03-06T07:27:00;5.40;99.90
13322;DHT22;6730;46.248;6.930;2024-03-06T07:29:29;5.50;99.90
13322;DHT22;6730;46.248;6.930;2024-03-06T07:31:55;5.50;99.90
13322;DHT22;6730;46.248;6.930;2024-03-06T07:34:21;5.20;99.90
13322;DHT22;6730;46.248;6.930;2024-03-06T07:36:49;5.20;99.90
13322;DHT22;6730;46.248;6.930;2024-03-06T07:39:21;5.10;99.90
13322;DHT22;6730;46.248;6.930;2024-03-06T07:41:47;5.30;99.90
13322;DHT22;6730;46.248;6.930;2024-03-06T07:44:13;5.50;99.90
13322;DHT22;6730;46.248;6.930;2024-03-06T07:46:39;5.50;99.90
13322;DHT22;6730;46.248;6.930;2024-03-06T07:49:05;5.50;99.90
13322;DHT22;6730;46.248;6.930;2024-03-06T07:51:34;5.20;99.90
13322;DHT22;6730;46.248;6.930;2024-03-06T07:54:01;4.80;99.90
13322;DHT22;6730;46.248;6.930;2024-03-06T07:56:27;4.80;99.90
13322;DHT22;6730;46.248;6.930;2024-03-06T07:58:53;4.70;99.90
13322;DHT22;6730;46.248;6.930;2024-03-06T08:01:20;4.70;99.90
13322;DHT22;6730;46.248;6.930;2024-03-06T08:03:46;4.70;99.90
13322;DHT22;6730;46.248;6.930;2024-03-06T08:06:12;4.80;99.90
13322;DHT22;6730;46.248;6.930;2024-03-06T08:08:44;4.50;99.90
13322;DHT22;6730;46.248;6.930;2024-03-06T08:11:13;4.40;99.90
13322;DHT22;6730;46.248;6.930;2024-03-06T08:13:39;4.40;99.90
13322;DHT22;6730;46.248;6.930;2024-03-06T08:16:05;4.50;99.90
13322;DHT22;6730;46.248;6.930;2024-03-06T08:18:32;4.60;99.90
13322;DHT22;6730;46.248;6.930;2024-03-06T08:20:59;4.60;99.90
13322;DHT22;6730;46.248;6.930;2024-03-06T08:23:24;4.60;99.90
13322;DHT22;6730;46.248;6.930;2024-03-06T08:25:51;4.40;99.90
13322;DHT22;6730;46.248;6.930;2024-03-06T08:28:16;4.40;99.90
13322;DHT22;6730;46.248;6.930;2024-03-06T08:30:42;4.00;99.90
13322;DHT22;6730;46.248;6.930;2024-03-06T08:33:09;3.30;99.90
13322;DHT22;6730;46.248;6.930;2024-03-06T08:35:35;3.20;99.90
13322;DHT22;6730;46.248;6.930;2024-03-06T08:38:01;3.30;99.90
13322;DHT22;6730;46.248;6.930;2024-03-06T08:40:27;3.40;99.90
13322;DHT22;6730;46.248;6.930;2024-03-06T08:42:53;3.20;99.90
13322;DHT22;6730;46.248;6.930;2024-03-06T08:45:19;2.90;99.90
13322;DHT22;6730;46.248;6.930;2024-03-06T08:47:45;2.80;99.90
13322;DHT22;6730;46.248;6.930;2024-03-06T08:50:12;2.80;99.90
13322;DHT22;6730;46.248;6.930;2024-03-06T08:52:38;2.90;99.90
13322;DHT22;6730;46.248;6.930;2024-03-06T08:55:04;3.10;99.90
13322;DHT22;6730;46.248;6.930;2024-03-06T08:57:31;3.10;99.90
13322;DHT22;6730;46.248;6.930;2024-03-06T08:59:58;3.20;99.90
13322;DHT22;6730;46.248;6.930;2024-03-06T09:02:24;3.30;99.90
13322;DHT22;6730;46.248;6.930;2024-03-06T09:04:49;3.50;99.90
13322;DHT22;6730;46.248;6.930;2024-03-06T09:07:17;3.60;99.90
13322;DHT22;6730;46.248;6.930;2024-03-06T09:09:43;3.60;99.90
13322;DHT22;6730;46.248;6.930;2024-03-06T09:12:09;3.40;99.90
13322;DHT22;6730;46.248;6.930;2024-03-06T09:14:40;3.20;99.90
13322;DHT22;6730;46.248;6.930;2024-03-06T09:17:07;3.40;99.90
13322;DHT22;6730;46.248;6.930;2024-03-06T09:19:35;3.70;99.90
13322;DHT22;6730;46.248;6.930;2024-03-06T09:22:00;3.70;99.90
13322;DHT22;6730;46.248;6.930;2024-03-06T09:24:26;3.60;99.90
13322;DHT22;6730;46.248;6.930;2024-03-06T09:26:52;3.70;99.90
13322;DHT22;6730;46.248;6.930;2024-03-06T09:29:18;3.80;99.90
13322;DHT22;6730;46.248;6.930;2024-03-06T09:31:45;3.70;99.90
13322;DHT22;6730;46.248;6.930;2024-03-06T09:34:11;3.80;99.90
13322;DHT22;6730;46.248;6.930;2024-03-06T09:36:44;3.80;99.90
13322;DHT22;6730;46.248;6.930;2024-03-06T09:39:18;4.00;99.90
13322;DHT22;6730;46.248;6.930;2024-03-06T09:41:52;3.90;99.90
13322;DHT22;6730;46.248;6.930;2024-03-06T09:44:20;3.90;99.90
13322;DHT22;6730;46.248;6.930;2024-03-06T09:46:49;4.00;99.90
13322;DHT22;6730;46.248;6.930;2024-03-06T09:49:18;4.20;99.90
13322;DHT22;6730;46.248;6.930;2024-03-06T09:51:48;4.60;99.90
13322;DHT22;6730;46.248;6.930;2024-03-06T09:54:19;4.30;99.90
13322;DHT22;6730;46.248;6.930;2024-03-06T09:56:48;4.00;99.90
13322;DHT22;6730;46.248;6.930;2024-03-06T09:59:15;4.00;99.90
13322;DHT22;6730;46.248;6.930;2024-03-06T10:02:01;4.10;99.90
13322;DHT22;6730;46.248;6.930;2024-03-06T10:04:33;4.40;99.90
13322;DHT22;6730;46.248;6.930;2024-03-06T10:07:02;4.60;99.90
13322;DHT22;6730;46.248;6.930;2024-03-06T10:09:28;4.90;99.90
13322;DHT22;6730;46.248;6.930;2024-03-06T10:11:55;4.90;99.90
13322;DHT22;6730;46.248;6.930;2024-03-06T10:14:23;4.90;99.90
13322;DHT22;6730;46.248;6.930;2024-03-06T10:19:19;4.90;99.90
13322;DHT22;6730;46.248;6.930;2024-03-06T10:21:51;4.90;99.90
13322;DHT22;6730;46.248;6.930;2024-03-06T10:24:29;4.90;99.90
13322;DHT22;6730;46.248;6.930;2024-03-06T10:26:56;4.90;99.90
13322;DHT22;6730;46.248;6.930;2024-03-06T10:29:25;5.00;99.90
13322;DHT22;6730;46.248;6.930;2024-03-06T10:31:56;5.20;99.90
13322;DHT22;6730;46.248;6.930;2024-03-06T10:34:24;5.10;99.90
13322;DHT22;6730;46.248;6.930;2024-03-06T10:37:03;4.80;99.90
13322;DHT22;6730;46.248;6.930;2024-03-06T10:39:36;4.90;99.90
13322;DHT22;6730;46.248;6.930;2024-03-06T10:42:06;4.70;99.90
13322;DHT22;6730;46.248;6.930;2024-03-06T10:44:34;4.60;99.90
13322;DHT22;6730;46.248;6.930;2024-03-06T10:47:05;4.60;99.90
13322;DHT22;6730;46.248;6.930;2024-03-06T10:49:31;4.70;99.90
13322;DHT22;6730;46.248;6.930;2024-03-06T10:52:01;4.80;99.90
13322;DHT22;6730;46.248;6.930;2024-03-06T10:54:28;5.00;99.90
13322;DHT22;6730;46.248;6.930;2024-03-06T10:56:57;5.00;99.90
13322;DHT22;6730;46.248;6.930;2024-03-06T10:59:28;5.00;99.90
13322;DHT22;6730;46.248;6.930;2024-03-06T11:01:58;5.10;99.90
13322;DHT22;6730;46.248;6.930;2024-03-06T11:04:29;5.10;99.90
13322;DHT22;6730;46.248;6.930;2024-03-06T11:06:56;5.20;99.90
13322;DHT22;6730;46.248;6.930;2024-03-06T11:09:23;5.10;99.90
13322;DHT22;6730;46.248;6.930;2024-03-06T11:11:50;5.20;99.90
13322;DHT22;6730;46.248;6.930;2024-03-06T11:14:17;5.20;99.90
13322;DHT22;6730;46.248;6.930;2024-03-06T11:19:28;5.30;99.90
13322;DHT22;6730;46.248;6.930;2024-03-06T11:21:54;5.60;99.90
13322;DHT22;6730;46.248;6.930;2024-03-06T11:24:38;5.80;99.90
13322;DHT22;6730;46.248;6.930;2024-03-06T11:27:04;5.80;99.90
13322;DHT22;6730;46.248;6.930;2024-03-06T11:32:38;5.30;99.90
13322;DHT22;6730;46.248;6.930;2024-03-06T11:35:22;5.30;99.90
13322;DHT22;6730;46.248;6.930;2024-03-06T11:37:50;5.40;99.90
13322;DHT22;6730;46.248;6.930;2024-03-06T11:40:22;5.50;99.90
13322;DHT22;6730;46.248;6.930;2024-03-06T11:42:50;5.50;99.90
13322;DHT22;6730;46.248;6.930;2024-03-06T11:45:18;5.80;99.90
13322;DHT22;6730;46.248;6.930;2024-03-06T11:48:01;6.10;99.90
13322;DHT22;6730;46.248;6.930;2024-03-06T11:50:28;5.80;99.90
13322;DHT22;6730;46.248;6.930;2024-03-06T11:52:54;5.60;99.90
13322;DHT22;6730;46.248;6.930;2024-03-06T11:55:23;5.60;99.90
13322;DHT22;6730;46.248;6.930;2024-03-06T11:57:51;5.70;99.90
13322;DHT22;6730;46.248;6.930;2024-03-06T12:00:24;5.50;99.90
13322;DHT22;6730;46.248;6.930;2024-03-06T12:02:52;5.50;99.90
13322;DHT22;6730;46.248;6.930;2024-03-06T12:05:18;5.50;99.90
13322;DHT22;6730;46.248;6.930;2024-03-06T12:07:50;5.60;99.90
13322;DHT22;6730;46.248;6.930;2024-03-06T12:10:16;5.60;99.90
13322;DHT22;6730;46.248;6.930;2024-03-06T12:12:42;5.60;99.90
13322;DHT22;6730;46.248;6.930;2024-03-06T12:15:15;5.70;99.90
13322;DHT22;6730;46.248;6.930;2024-03-06T12:17:45;5.80;99.90
13322;DHT22;6730;46.248;6.930;2024-03-06T12:20:12;6.00;99.90
13322;DHT22;6730;46.248;6.930;2024-03-06T12:22:53;5.90;99.90
13322;DHT22;6730;46.248;6.930;2024-03-06T12:25:22;5.80;99.90
13322;DHT22;6730;46.248;6.930;2024-03-06T12:27:49;6.00;99.90
13322;DHT22;6730;46.248;6.930;2024-03-06T12:30:19;6.10;99.90
13322;DHT22;6730;46.248;6.930;2024-03-06T12:32:59;6.50;99.90
13322;DHT22;6730;46.248;6.930;2024-03-06T12:35:25;6.60;99.90
13322;DHT22;6730;46.248;6.930;2024-03-06T12:37:52;6.40;99.90
13322;DHT22;6730;46.248;6.930;2024-03-06T12:40:21;6.20;99.90
13322;DHT22;6730;46.248;6.930;2024-03-06T12:42:47;6.20;99.90
13322;DHT22;6730;46.248;6.930;2024-03-06T12:45:15;6.40;99.90
13322;DHT22;6730;46.248;6.930;2024-03-06T12:47:42;6.70;99.90
13322;DHT22;6730;46.248;6.930;2024-03-06T12:50:08;6.60;99.90
13322;DHT22;6730;46.248;6.930;2024-03-06T12:52:34;6.60;99.90
13322;DHT22;6730;46.248;6.930;2024-03-06T12:55:00;6.70;99.90
13322;DHT22;6730;46.248;6.930;2024-03-06T12:57:26;6.90;99.90
13322;DHT22;6730;46.248;6.930;2024-03-06T12:59:53;6.90;99.90
13322;DHT22;6730;46.248;6.930;2024-03-06T13:02:19;7.10;99.90
13322;DHT22;6730;46.248;6.930;2024-03-06T13:04:44;7.30;99.90
13322;DHT22;6730;46.248;6.930;2024-03-06T13:07:11;7.10;99.90
13322;DHT22;6730;46.248;6.930;2024-03-06T13:09:37;7.10;99.90
13322;DHT22;6730;46.248;6.930;2024-03-06T13:12:04;7.40;99.90
13322;DHT22;6730;46.248;6.930;2024-03-06T13:14:29;7.50;99.90
13322;DHT22;6730;46.248;6.930;2024-03-06T13:16:56;7.60;99.90
13322;DHT22;6730;46.248;6.930;2024-03-06T13:19:22;7.60;99.90
13322;DHT22;6730;46.248;6.930;2024-03-06T13:21:48;7.80;99.90
13322;DHT22;6730;46.248;6.930;2024-03-06T13:24:14;8.00;99.90
13322;DHT22;6730;46.248;6.930;2024-03-06T13:26:39;7.60;99.90
13322;DHT22;6730;46.248;6.930;2024-03-06T13:29:09;7.10;99.90
13322;DHT22;6730;46.248;6.930;2024-03-06T13:31:34;7.10;99.90
13322;DHT22;6730;46.248;6.930;2024-03-06T13:34:01;7.20;99.90
13322;DHT22;6730;46.248;6.930;2024-03-06T13:36:28;7.20;99.90
13322;DHT22;6730;46.248;6.930;2024-03-06T13:38:54;7.00;99.90
13322;DHT22;6730;46.248;6.930;2024-03-06T13:41:20;6.90;99.90
13322;DHT22;6730;46.248;6.930;2024-03-06T13:43:45;6.70;99.90
13322;DHT22;6730;46.248;6.930;2024-03-06T13:46:11;7.00;99.90
13322;DHT22;6730;46.248;6.930;2024-03-06T13:48:37;7.00;99.90
13322;DHT22;6730;46.248;6.930;2024-03-06T13:51:03;7.00;99.90
13322;DHT22;6730;46.248;6.930;2024-03-06T13:53:30;6.90;99.90
13322;DHT22;6730;46.248;6.930;2024-03-06T13:55:56;6.90;99.90
13322;DHT22;6730;46.248;6.930;2024-03-06T13:58:21;7.00;99.90
13322;DHT22;6730;46.248;6.930;2024-03-06T14:00:47;6.70;99.90
13322;DHT22;6730;46.248;6.930;2024-03-06T14:03:13;6.90;99.90
13322;DHT22;6730;46.248;6.930;2024-03-06T14:05:39;7.10;99.90
13322;DHT22;6730;46.248;6.930;2024-03-06T14:08:05;7.30;99.90
13322;DHT22;6730;46.248;6.930;2024-03-06T14:10:30;7.50;99.90
13322;DHT22;6730;46.248;6.930;2024-03-06T14:13:00;7.40;99.90
13322;DHT22;6730;46.248;6.930;2024-03-06T14:15:25;7.40;99.90
13322;DHT22;6730;46.248;6.930;2024-03-06T14:17:52;7.30;99.90
13322;DHT22;6730;46.248;6.930;2024-03-06T14:20:22;7.20;99.90
13322;DHT22;6730;46.248;6.930;2024-03-06T14:22:47;7.20;99.90
13322;DHT22;6730;46.248;6.930;2024-03-06T14:25:14;6.80;99.90
13322;DHT22;6730;46.248;6.930;2024-03-06T14:27:39;6.90;99.90
13322;DHT22;6730;46.248;6.930;2024-03-06T14:30:06;7.00;99.90
13322;DHT22;6730;46.248;6.930;2024-03-06T14:32:37;7.00;99.90
13322;DHT22;6730;46.248;6.930;2024-03-06T14:35:03;7.00;99.90
13322;DHT22;6730;46.248;6.930;2024-03-06T14:37:28;7.00;99.90
13322;DHT22;6730;46.248;6.930;2024-03-06T14:39:54;7.00;99.90
13322;DHT22;6730;46.248;6.930;2024-03-06T14:42:20;7.10;99.90
13322;DHT22;6730;46.248;6.930;2024-03-06T14:44:45;7.20;99.90
13322;DHT22;6730;46.248;6.930;2024-03-06T14:47:12;7.10;99.90
13322;DHT22;6730;46.248;6.930;2024-03-06T14:49:41;6.90;99.90
13322;DHT22;6730;46.248;6.930;2024-03-06T14:52:07;6.80;99.90
13322;DHT22;6730;46.248;6.930;2024-03-06T14:54:34;6.80;99.90
13322;DHT22;6730;46.248;6.930;2024-03-06T14:57:00;6.80;99.90
13322;DHT22;6730;46.248;6.930;2024-03-06T14:59:26;6.80;99.90
13322;DHT22;6730;46.248;6.930;2024-03-06T15:01:52;6.80;99.90
13322;DHT22;6730;46.248;6.930;2024-03-06T15:04:17;6.80;99.90
13322;DHT22;6730;46.248;6.930;2024-03-06T15:06:43;6.80;99.90
13322;DHT22;6730;46.248;6.930;2024-03-06T15:09:10;6.90;99.90
13322;DHT22;6730;46.248;6.930;2024-03-06T15:11:38;7.10;99.90
13322;DHT22;6730;46.248;6.930;2024-03-06T15:14:04;7.10;99.90
13322;DHT22;6730;46.248;6.930;2024-03-06T15:16:30;7.20;99.90
13322;DHT22;6730;46.248;6.930;2024-03-06T15:18:55;7.30;99.90
13322;DHT22;6730;46.248;6.930;2024-03-06T15:21:23;7.20;99.90
13322;DHT22;6730;46.248;6.930;2024-03-06T15:23:49;7.00;99.90
13322;DHT22;6730;46.248;6.930;2024-03-06T15:26:19;6.90;99.90
13322;DHT22;6730;46.248;6.930;2024-03-06T15:28:44;7.10;99.90
13322;DHT22;6730;46.248;6.930;2024-03-06T15:31:10;7.30;99.90
13322;DHT22;6730;46.248;6.930;2024-03-06T15:33:36;7.50;99.90
13322;DHT22;6730;46.248;6.930;2024-03-06T15:36:02;7.20;99.90
13322;DHT22;6730;46.248;6.930;2024-03-06T15:38:28;6.60;99.90
13322;DHT22;6730;46.248;6.930;2024-03-06T15:40:54;6.20;99.90
13322;DHT22;6730;46.248;6.930;2024-03-06T15:43:19;6.00;99.90
13322;DHT22;6730;46.248;6.930;2024-03-06T15:45:45;5.90;99.90
13322;DHT22;6730;46.248;6.930;2024-03-06T15:48:11;5.90;99.90
13322;DHT22;6730;46.248;6.930;2024-03-06T15:50:43;5.90;99.90
13322;DHT22;6730;46.248;6.930;2024-03-06T15:53:09;5.90;99.90
13322;DHT22;6730;46.248;6.930;2024-03-06T15:55:36;5.90;99.90
13322;DHT22;6730;46.248;6.930;2024-03-06T15:58:05;6.00;99.90
13322;DHT22;6730;46.248;6.930;2024-03-06T16:00:31;6.10;99.90
13322;DHT22;6730;46.248;6.930;2024-03-06T16:02:57;6.10;99.90
13322;DHT22;6730;46.248;6.930;2024-03-06T16:05:24;6.10;99.90
13322;DHT22;6730;46.248;6.930;2024-03-06T16:07:54;6.20;99.90
13322;DHT22;6730;46.248;6.930;2024-03-06T16:10:20;6.20;99.90